Airport Name : Brown Fld Muni

Other Name : Brown Fld Muni

ICAO : KSDM

IATA : SDM

FAA : SDM

Latitude : 32.572306

Longitude : -116.98025

Country : United States

Local Date and Time : 21 Jul 2024 18:44

 

TAF (Terminal Aerodrome Forecast)

 

METAR (METeorological Aerodrome Report)

KSDM 220053Z 29007KT 10SM CLR 23/16 A2988 RMK AO2 SLP112 T02280161

KSDM 212353Z 28007KT 10SM CLR 24/17 A2989 RMK AO2 SLP115 T02390167 10267 20239 56009

KSDM 212253Z 28007KT 10SM CLR 24/17 A2989 RMK AO2 SLP117 T02440167

KSDM 212153Z 32005KT 10SM CLR 25/17 A2990 RMK AO2 SLP121 T02500172